sensor_id;sensor_type;location;lat;lon;timestamp;pressure;altitude;pressure_sealevel;temperature;humidity
72308;BME280;60257;42.638;23.376;2023-04-02T00:01:22;93720.81;;;7.87;58.12
72308;BME280;60257;42.638;23.376;2023-04-02T00:09:03;93719.13;;;7.83;58.55
72308;BME280;60257;42.638;23.376;2023-04-02T00:11:46;93697.28;;;7.83;58.70
72308;BME280;60257;42.638;23.376;2023-04-02T00:14:32;93725.75;;;7.97;57.34
72308;BME280;60257;42.638;23.376;2023-04-02T00:17:01;93710.94;;;7.98;58.16
72308;BME280;60257;42.638;23.376;2023-04-02T00:19:34;93715.69;;;8.01;56.96
72308;BME280;60257;42.638;23.376;2023-04-02T00:22:02;93726.34;;;8.06;56.90
72308;BME280;60257;42.638;23.376;2023-04-02T00:24:32;93697.47;;;7.90;57.39
72308;BME280;60257;42.638;23.376;2023-04-02T00:26:57;93717.56;;;7.97;57.27
72308;BME280;60257;42.638;23.376;2023-04-02T00:29:23;93703.81;;;7.94;57.02
72308;BME280;60257;42.638;23.376;2023-04-02T00:31:50;93696.75;;;7.93;56.95
72308;BME280;60257;42.638;23.376;2023-04-02T00:34:24;93689.66;;;7.88;57.36
72308;BME280;60257;42.638;23.376;2023-04-02T00:36:51;93698.63;;;7.89;57.36
72308;BME280;60257;42.638;23.376;2023-04-02T00:39:44;93699.03;;;7.91;56.96
72308;BME280;60257;42.638;23.376;2023-04-02T00:42:11;93698.69;;;7.92;57.10
72308;BME280;60257;42.638;23.376;2023-04-02T00:44:39;93685.69;;;7.86;57.48
72308;BME280;60257;42.638;23.376;2023-04-02T00:49:48;93702.56;;;7.91;57.37
72308;BME280;60257;42.638;23.376;2023-04-02T00:52:20;93694.47;;;7.95;56.91
72308;BME280;60257;42.638;23.376;2023-04-02T00:54:50;93694.72;;;7.90;57.49
72308;BME280;60257;42.638;23.376;2023-04-02T00:57:20;93701.72;;;7.87;57.73
72308;BME280;60257;42.638;23.376;2023-04-02T01:02:43;93694.81;;;7.93;56.71
72308;BME280;60257;42.638;23.376;2023-04-02T01:05:33;93689.53;;;8.00;57.39
72308;BME280;60257;42.638;23.376;2023-04-02T01:22:04;93699.47;;;7.46;61.19
72308;BME280;60257;42.638;23.376;2023-04-02T01:24:12;93718.31;;;7.35;63.01
72308;BME280;60257;42.638;23.376;2023-04-02T01:26:56;93715.94;;;7.06;64.43
72308;BME280;60257;42.638;23.376;2023-04-02T01:29:38;93717.88;;;6.77;66.39
72308;BME280;60257;42.638;23.376;2023-04-02T01:32:11;93727.31;;;6.68;66.78
72308;BME280;60257;42.638;23.376;2023-04-02T01:34:38;93727.56;;;6.63;67.12
72308;BME280;60257;42.638;23.376;2023-04-02T01:37:19;93722.13;;;6.50;67.38
72308;BME280;60257;42.638;23.376;2023-04-02T01:45:41;93718.28;;;6.51;65.89
72308;BME280;60257;42.638;23.376;2023-04-02T01:48:32;93713.84;;;6.59;66.08
72308;BME280;60257;42.638;23.376;2023-04-02T01:50:59;93704.09;;;6.58;64.88
72308;BME280;60257;42.638;23.376;2023-04-02T01:53:27;93719.59;;;6.70;64.70
72308;BME280;60257;42.638;23.376;2023-04-02T01:56:00;93709.59;;;6.74;63.97
72308;BME280;60257;42.638;23.376;2023-04-02T01:58:30;93711.75;;;6.80;63.85
72308;BME280;60257;42.638;23.376;2023-04-02T02:03:27;93715.34;;;6.84;64.32
72308;BME280;60257;42.638;23.376;2023-04-02T02:05:54;93710.97;;;6.68;67.45
72308;BME280;60257;42.638;23.376;2023-04-02T02:08:39;93716.69;;;6.50;68.22
72308;BME280;60257;42.638;23.376;2023-04-02T02:11:13;93709.34;;;6.39;68.90
72308;BME280;60257;42.638;23.376;2023-04-02T02:13:39;93712.53;;;6.29;69.48
72308;BME280;60257;42.638;23.376;2023-04-02T02:16:11;93720.63;;;6.13;70.55
72308;BME280;60257;42.638;23.376;2023-04-02T02:18:42;93726.19;;;6.04;70.88
72308;BME280;60257;42.638;23.376;2023-04-02T02:21:09;93726.19;;;5.92;71.44
72308;BME280;60257;42.638;23.376;2023-04-02T02:23:35;93708.03;;;5.84;71.45
72308;BME280;60257;42.638;23.376;2023-04-02T02:26:04;93721.28;;;5.86;71.08
72308;BME280;60257;42.638;23.376;2023-04-02T02:28:32;93733.56;;;5.92;70.93
72308;BME280;60257;42.638;23.376;2023-04-02T02:31:28;93725.41;;;5.92;71.10
72308;BME280;60257;42.638;23.376;2023-04-02T02:33:57;93712.09;;;5.66;71.87
72308;BME280;60257;42.638;23.376;2023-04-02T02:36:42;93715.28;;;5.80;71.82
72308;BME280;60257;42.638;23.376;2023-04-02T02:39:36;93716.34;;;5.88;71.98
72308;BME280;60257;42.638;23.376;2023-04-02T02:42:27;93716.97;;;5.85;71.81
72308;BME280;60257;42.638;23.376;2023-04-02T02:44:57;93713.00;;;5.82;71.64
72308;BME280;60257;42.638;23.376;2023-04-02T02:47:37;93703.25;;;5.69;72.16
72308;BME280;60257;42.638;23.376;2023-04-02T02:50:13;93721.53;;;5.80;72.26
72308;BME280;60257;42.638;23.376;2023-04-02T02:52:46;93725.69;;;5.54;73.42
72308;BME280;60257;42.638;23.376;2023-04-02T02:55:15;93729.06;;;5.51;73.42
72308;BME280;60257;42.638;23.376;2023-04-02T02:57:48;93717.88;;;5.64;73.00
72308;BME280;60257;42.638;23.376;2023-04-02T03:00:15;93712.22;;;5.69;73.29
72308;BME280;60257;42.638;23.376;2023-04-02T03:02:45;93710.06;;;5.75;73.19
72308;BME280;60257;42.638;23.376;2023-04-02T03:05:20;93711.41;;;5.81;72.85
72308;BME280;60257;42.638;23.376;2023-04-02T03:07:47;93712.09;;;5.66;73.45
72308;BME280;60257;42.638;23.376;2023-04-02T03:10:22;93725.25;;;5.64;73.37
72308;BME280;60257;42.638;23.376;2023-04-02T03:13:21;93722.06;;;5.74;73.06
72308;BME280;60257;42.638;23.376;2023-04-02T03:16:11;93733.19;;;5.69;73.27
72308;BME280;60257;42.638;23.376;2023-04-02T03:21:37;93732.72;;;5.67;73.09
72308;BME280;60257;42.638;23.376;2023-04-02T03:26:49;93722.53;;;5.64;73.02
72308;BME280;60257;42.638;23.376;2023-04-02T03:29:22;93737.25;;;5.75;73.05
72308;BME280;60257;42.638;23.376;2023-04-02T03:31:55;93738.50;;;5.65;73.44
72308;BME280;60257;42.638;23.376;2023-04-02T03:34:27;93741.44;;;5.60;73.55
72308;BME280;60257;42.638;23.376;2023-04-02T03:39:35;93740.06;;;5.54;73.45
72308;BME280;60257;42.638;23.376;2023-04-02T03:42:16;93742.88;;;5.46;73.63
72308;BME280;60257;42.638;23.376;2023-04-02T03:47:35;93748.00;;;5.47;73.69
72308;BME280;60257;42.638;23.376;2023-04-02T03:50:10;93758.41;;;5.45;73.78
72308;BME280;60257;42.638;23.376;2023-04-02T03:52:39;93744.91;;;5.36;74.35
72308;BME280;60257;42.638;23.376;2023-04-02T03:55:14;93750.09;;;5.29;74.50
72308;BME280;60257;42.638;23.376;2023-04-02T04:00:14;93746.81;;;5.36;74.47
72308;BME280;60257;42.638;23.376;2023-04-02T04:02:54;93747.63;;;5.36;74.52
72308;BME280;60257;42.638;23.376;2023-04-02T04:05:25;93746.81;;;5.36;74.39
72308;BME280;60257;42.638;23.376;2023-04-02T04:07:56;93745.59;;;5.33;74.17
72308;BME280;60257;42.638;23.376;2023-04-02T04:10:25;93752.00;;;5.17;75.00
72308;BME280;60257;42.638;23.376;2023-04-02T04:12:55;93742.25;;;5.16;74.89
72308;BME280;60257;42.638;23.376;2023-04-02T04:20:50;93753.69;;;5.21;74.86
72308;BME280;60257;42.638;23.376;2023-04-02T04:23:33;93760.25;;;5.20;74.78
72308;BME280;60257;42.638;23.376;2023-04-02T04:26:19;93763.84;;;5.12;74.78
72308;BME280;60257;42.638;23.376;2023-04-02T04:29:14;93776.00;;;5.15;74.98
72308;BME280;60257;42.638;23.376;2023-04-02T04:31:47;93777.91;;;5.14;74.99
72308;BME280;60257;42.638;23.376;2023-04-02T04:34:25;93773.41;;;5.18;74.78
72308;BME280;60257;42.638;23.376;2023-04-02T04:36:58;93782.16;;;5.24;74.68
72308;BME280;60257;42.638;23.376;2023-04-02T04:39:43;93778.38;;;5.16;74.77
72308;BME280;60257;42.638;23.376;2023-04-02T04:42:19;93792.16;;;5.11;74.99
72308;BME280;60257;42.638;23.376;2023-04-02T04:47:53;93787.59;;;5.24;74.72
72308;BME280;60257;42.638;23.376;2023-04-02T04:52:55;93781.50;;;5.39;74.39
72308;BME280;60257;42.638;23.376;2023-04-02T04:55:34;93793.91;;;5.49;74.00
72308;BME280;60257;42.638;23.376;2023-04-02T05:03:37;93785.81;;;5.40;74.14
72308;BME280;60257;42.638;23.376;2023-04-02T05:06:11;93769.63;;;5.43;74.05
72308;BME280;60257;42.638;23.376;2023-04-02T05:08:43;93773.38;;;5.51;73.52
72308;BME280;60257;42.638;23.376;2023-04-02T05:11:18;93778.38;;;5.49;73.88
72308;BME280;60257;42.638;23.376;2023-04-02T05:13:52;93782.22;;;5.48;73.60
72308;BME280;60257;42.638;23.376;2023-04-02T05:16:44;93787.56;;;5.57;73.55
72308;BME280;60257;42.638;23.376;2023-04-02T05:19:26;93784.84;;;5.69;73.85
72308;BME280;60257;42.638;23.376;2023-04-02T05:21:58;93777.50;;;5.69;72.73
72308;BME280;60257;42.638;23.376;2023-04-02T05:27:38;93792.69;;;5.70;72.22
72308;BME280;60257;42.638;23.376;2023-04-02T05:30:27;93799.06;;;5.87;72.30
72308;BME280;60257;42.638;23.376;2023-04-02T05:33:25;93798.75;;;6.00;72.42
72308;BME280;60257;42.638;23.376;2023-04-02T05:38:28;93798.75;;;6.12;71.88
72308;BME280;60257;42.638;23.376;2023-04-02T05:41:07;93802.38;;;6.04;71.22
72308;BME280;60257;42.638;23.376;2023-04-02T05:43:44;93794.56;;;6.15;71.13
72308;BME280;60257;42.638;23.376;2023-04-02T05:46:21;93803.41;;;6.36;71.75
72308;BME280;60257;42.638;23.376;2023-04-02T05:48:53;93810.13;;;6.39;70.76
72308;BME280;60257;42.638;23.376;2023-04-02T05:51:24;93810.69;;;6.32;70.50
72308;BME280;60257;42.638;23.376;2023-04-02T05:53:54;93805.44;;;6.51;69.96
72308;BME280;60257;42.638;23.376;2023-04-02T05:56:22;93818.47;;;6.70;69.75
72308;BME280;60257;42.638;23.376;2023-04-02T05:58:53;93808.56;;;6.90;69.31
72308;BME280;60257;42.638;23.376;2023-04-02T06:01:28;93815.22;;;7.05;69.03
72308;BME280;60257;42.638;23.376;2023-04-02T06:04:48;93818.59;;;7.14;68.54
72308;BME280;60257;42.638;23.376;2023-04-02T06:07:14;93816.44;;;7.19;68.23
72308;BME280;60257;42.638;23.376;2023-04-02T06:09:53;93820.25;;;7.30;68.40
72308;BME280;60257;42.638;23.376;2023-04-02T06:12:50;93821.09;;;7.47;67.22
72308;BME280;60257;42.638;23.376;2023-04-02T06:15:21;93822.88;;;7.55;67.07
72308;BME280;60257;42.638;23.376;2023-04-02T06:18:10;93826.25;;;7.64;66.81
72308;BME280;60257;42.638;23.376;2023-04-02T06:20:37;93816.94;;;7.65;66.59
72308;BME280;60257;42.638;23.376;2023-04-02T06:23:17;93815.97;;;7.73;66.27
72308;BME280;60257;42.638;23.376;2023-04-02T06:25:48;93815.44;;;7.83;66.72
72308;BME280;60257;42.638;23.376;2023-04-02T06:28:21;93821.72;;;7.99;65.51
72308;BME280;60257;42.638;23.376;2023-04-02T06:30:52;93820.06;;;8.10;65.56
72308;BME280;60257;42.638;23.376;2023-04-02T06:33:18;93813.53;;;8.15;64.13
72308;BME280;60257;42.638;23.376;2023-04-02T06:35:44;93812.91;;;8.06;63.95
72308;BME280;60257;42.638;23.376;2023-04-02T06:38:28;93822.81;;;8.10;63.67
72308;BME280;60257;42.638;23.376;2023-04-02T06:40:58;93819.44;;;8.01;64.05
72308;BME280;60257;42.638;23.376;2023-04-02T06:43:31;93811.53;;;7.96;63.90
72308;BME280;60257;42.638;23.376;2023-04-02T06:46:46;93823.50;;;8.07;64.15
72308;BME280;60257;42.638;23.376;2023-04-02T06:48:58;93809.31;;;8.18;63.96
72308;BME280;60257;42.638;23.376;2023-04-02T06:51:27;93821.88;;;8.34;63.35
72308;BME280;60257;42.638;23.376;2023-04-02T06:53:55;93815.25;;;8.35;62.94
72308;BME280;60257;42.638;23.376;2023-04-02T06:56:41;93824.50;;;8.46;63.09
72308;BME280;60257;42.638;23.376;2023-04-02T06:59:29;93812.41;;;8.47;62.17
72308;BME280;60257;42.638;23.376;2023-04-02T07:02:00;93823.50;;;8.55;62.32
72308;BME280;60257;42.638;23.376;2023-04-02T07:04:29;93828.97;;;8.70;62.04
72308;BME280;60257;42.638;23.376;2023-04-02T07:06:54;93840.94;;;8.81;61.67
72308;BME280;60257;42.638;23.376;2023-04-02T07:09:20;93842.06;;;8.96;60.50
72308;BME280;60257;42.638;23.376;2023-04-02T07:11:47;93844.31;;;9.10;60.12
72308;BME280;60257;42.638;23.376;2023-04-02T07:14:12;93835.81;;;9.15;59.27
72308;BME280;60257;42.638;23.376;2023-04-02T07:16:39;93839.50;;;9.22;59.13
72308;BME280;60257;42.638;23.376;2023-04-02T07:19:05;93836.75;;;9.22;58.93
72308;BME280;60257;42.638;23.376;2023-04-02T07:21:31;93838.88;;;9.29;59.28
72308;BME280;60257;42.638;23.376;2023-04-02T07:23:57;93835.84;;;9.34;58.35
72308;BME280;60257;42.638;23.376;2023-04-02T07:26:24;93841.03;;;9.39;58.52
72308;BME280;60257;42.638;23.376;2023-04-02T07:28:51;93844.00;;;9.50;58.74
72308;BME280;60257;42.638;23.376;2023-04-02T07:31:20;93845.00;;;9.61;58.54
72308;BME280;60257;42.638;23.376;2023-04-02T07:33:47;93846.72;;;9.69;57.85
72308;BME280;60257;42.638;23.376;2023-04-02T07:36:15;93849.03;;;9.86;56.72
72308;BME280;60257;42.638;23.376;2023-04-02T07:38:41;93839.72;;;9.91;56.33
72308;BME280;60257;42.638;23.376;2023-04-02T07:41:07;93846.38;;;9.90;56.29
72308;BME280;60257;42.638;23.376;2023-04-02T07:43:33;93845.00;;;10.22;56.89
72308;BME280;60257;42.638;23.376;2023-04-02T07:46:00;93851.16;;;10.38;55.11
72308;BME280;60257;42.638;23.376;2023-04-02T07:48:26;93851.91;;;10.35;54.64
72308;BME280;60257;42.638;23.376;2023-04-02T07:50:52;93842.22;;;10.19;54.87
72308;BME280;60257;42.638;23.376;2023-04-02T07:53:30;93834.25;;;10.33;54.08
72308;BME280;60257;42.638;23.376;2023-04-02T07:55:57;93833.88;;;10.34;53.61
72308;BME280;60257;42.638;23.376;2023-04-02T07:58:23;93851.81;;;10.51;54.41
72308;BME280;60257;42.638;23.376;2023-04-02T08:00:48;93837.06;;;10.59;54.22
72308;BME280;60257;42.638;23.376;2023-04-02T08:03:14;93826.19;;;10.66;53.17
72308;BME280;60257;42.638;23.376;2023-04-02T08:05:40;93837.84;;;10.60;52.88
72308;BME280;60257;42.638;23.376;2023-04-02T08:08:06;93847.50;;;10.76;53.61
72308;BME280;60257;42.638;23.376;2023-04-02T08:10:31;93842.72;;;10.96;53.59
72308;BME280;60257;42.638;23.376;2023-04-02T08:12:56;93844.25;;;11.20;51.05
72308;BME280;60257;42.638;23.376;2023-04-02T08:15:22;93847.41;;;11.22;48.42
72308;BME280;60257;42.638;23.376;2023-04-02T08:17:47;93840.19;;;11.40;48.03
72308;BME280;60257;42.638;23.376;2023-04-02T08:20:19;93844.44;;;11.34;47.87
72308;BME280;60257;42.638;23.376;2023-04-02T08:22:45;93842.44;;;11.31;48.54
72308;BME280;60257;42.638;23.376;2023-04-02T08:25:11;93840.88;;;11.30;48.74
72308;BME280;60257;42.638;23.376;2023-04-02T08:27:37;93837.44;;;11.37;48.80
72308;BME280;60257;42.638;23.376;2023-04-02T08:30:04;93835.41;;;11.34;48.14
72308;BME280;60257;42.638;23.376;2023-04-02T08:32:30;93849.28;;;11.44;48.69
72308;BME280;60257;42.638;23.376;2023-04-02T08:34:55;93843.47;;;11.49;48.24
72308;BME280;60257;42.638;23.376;2023-04-02T08:37:21;93850.69;;;11.61;47.74
72308;BME280;60257;42.638;23.376;2023-04-02T08:39:47;93852.69;;;11.64;47.47
72308;BME280;60257;42.638;23.376;2023-04-02T08:47:37;93853.03;;;11.63;46.81
72308;BME280;60257;42.638;23.376;2023-04-02T08:50:29;93851.97;;;11.71;48.03
72308;BME280;60257;42.638;23.376;2023-04-02T08:52:58;93848.97;;;11.79;47.75
72308;BME280;60257;42.638;23.376;2023-04-02T08:55:33;93845.66;;;11.97;46.77
72308;BME280;60257;42.638;23.376;2023-04-02T09:00:39;93849.03;;;12.20;45.84
72308;BME280;60257;42.638;23.376;2023-04-02T09:03:34;93840.75;;;12.16;45.86
72308;BME280;60257;42.638;23.376;2023-04-02T09:06:01;93838.78;;;12.17;46.68
72308;BME280;60257;42.638;23.376;2023-04-02T09:08:29;93840.34;;;12.55;45.65
72308;BME280;60257;42.638;23.376;2023-04-02T09:11:09;93836.16;;;12.71;44.47
72308;BME280;60257;42.638;23.376;2023-04-02T09:13:41;93835.94;;;12.91;43.77
72308;BME280;60257;42.638;23.376;2023-04-02T09:16:15;93830.81;;;12.89;44.32
72308;BME280;60257;42.638;23.376;2023-04-02T09:18:43;93847.00;;;12.98;43.54
72308;BME280;60257;42.638;23.376;2023-04-02T09:23:37;93842.56;;;13.34;42.63
72308;BME280;60257;42.638;23.376;2023-04-02T09:26:37;93836.28;;;13.40;42.73
72308;BME280;60257;42.638;23.376;2023-04-02T09:29:28;93847.06;;;13.67;40.97
72308;BME280;60257;42.638;23.376;2023-04-02T09:32:12;93849.22;;;13.33;41.71
72308;BME280;60257;42.638;23.376;2023-04-02T09:34:42;93853.25;;;13.46;41.34
72308;BME280;60257;42.638;23.376;2023-04-02T09:37:14;93827.00;;;13.66;40.95
72308;BME280;60257;42.638;23.376;2023-04-02T09:39:40;93834.63;;;14.05;40.98
72308;BME280;60257;42.638;23.376;2023-04-02T09:42:10;93822.06;;;14.21;40.08
72308;BME280;60257;42.638;23.376;2023-04-02T09:44:52;93822.94;;;14.47;39.10
72308;BME280;60257;42.638;23.376;2023-04-02T09:47:24;93823.75;;;14.47;38.77
72308;BME280;60257;42.638;23.376;2023-04-02T09:49:51;93818.63;;;14.63;38.27
72308;BME280;60257;42.638;23.376;2023-04-02T09:52:20;93825.72;;;14.72;39.02
72308;BME280;60257;42.638;23.376;2023-04-02T09:57:41;93820.97;;;15.25;36.85
72308;BME280;60257;42.638;23.376;2023-04-02T10:00:23;93816.69;;;14.85;36.41
72308;BME280;60257;42.638;23.376;2023-04-02T10:05:29;93814.69;;;14.47;37.15
72308;BME280;60257;42.638;23.376;2023-04-02T10:08:06;93816.59;;;14.32;37.43
72308;BME280;60257;42.638;23.376;2023-04-02T10:10:45;93813.88;;;14.39;37.24
72308;BME280;60257;42.638;23.376;2023-04-02T10:16:02;93809.56;;;14.88;37.81
72308;BME280;60257;42.638;23.376;2023-04-02T10:21:35;93801.66;;;14.72;35.92
72308;BME280;60257;42.638;23.376;2023-04-02T10:24:04;93802.84;;;14.82;36.15
72308;BME280;60257;42.638;23.376;2023-04-02T10:26:43;93805.63;;;14.89;36.47
72308;BME280;60257;42.638;23.376;2023-04-02T10:29:29;93793.78;;;15.02;34.26
72308;BME280;60257;42.638;23.376;2023-04-02T10:32:23;93811.53;;;14.94;35.61
72308;BME280;60257;42.638;23.376;2023-04-02T10:46:02;93809.94;;;14.97;38.78
72308;BME280;60257;42.638;23.376;2023-04-02T10:51:45;93806.78;;;14.88;37.89
72308;BME280;60257;42.638;23.376;2023-04-02T10:55:12;93803.66;;;14.82;38.67
72308;BME280;60257;42.638;23.376;2023-04-02T11:00:30;93794.56;;;15.14;37.84
72308;BME280;60257;42.638;23.376;2023-04-02T11:05:42;93788.22;;;15.27;37.90
72308;BME280;60257;42.638;23.376;2023-04-02T11:10:45;93794.56;;;14.96;37.91
72308;BME280;60257;42.638;23.376;2023-04-02T11:13:21;93781.97;;;14.59;38.41
72308;BME280;60257;42.638;23.376;2023-04-02T11:15:49;93792.59;;;14.40;39.71
72308;BME280;60257;42.638;23.376;2023-04-02T11:18:26;93790.63;;;14.44;39.84
72308;BME280;60257;42.638;23.376;2023-04-02T11:23:59;93786.53;;;13.95;40.29
72308;BME280;60257;42.638;23.376;2023-04-02T11:26:43;93791.75;;;14.21;40.29
72308;BME280;60257;42.638;23.376;2023-04-02T11:29:15;93795.25;;;14.01;40.56
72308;BME280;60257;42.638;23.376;2023-04-02T11:31:43;93791.00;;;14.56;39.23
72308;BME280;60257;42.638;23.376;2023-04-02T11:37:28;93785.91;;;15.01;38.66
72308;BME280;60257;42.638;23.376;2023-04-02T11:39:54;93781.94;;;15.06;38.50
72308;BME280;60257;42.638;23.376;2023-04-02T11:42:34;93777.63;;;14.87;38.13
72308;BME280;60257;42.638;23.376;2023-04-02T11:50:43;93781.19;;;14.55;39.11
72308;BME280;60257;42.638;23.376;2023-04-02T12:09:21;93772.09;;;14.66;38.41
72308;BME280;60257;42.638;23.376;2023-04-02T12:11:50;93761.84;;;14.73;37.78
72308;BME280;60257;42.638;23.376;2023-04-02T12:14:40;93768.16;;;14.59;38.59
72308;BME280;60257;42.638;23.376;2023-04-02T12:17:29;93765.38;;;14.42;38.95
72308;BME280;60257;42.638;23.376;2023-04-02T12:22:31;93757.16;;;14.63;38.77
72308;BME280;60257;42.638;23.376;2023-04-02T12:25:04;93756.72;;;14.75;38.34
72308;BME280;60257;42.638;23.376;2023-04-02T12:27:30;93770.53;;;14.89;38.13
72308;BME280;60257;42.638;23.376;2023-04-02T12:30:18;93763.44;;;14.85;38.29
72308;BME280;60257;42.638;23.376;2023-04-02T12:32:44;93755.56;;;14.66;37.95
72308;BME280;60257;42.638;23.376;2023-04-02T12:35:30;93764.59;;;14.48;38.68
72308;BME280;60257;42.638;23.376;2023-04-02T12:37:56;93766.53;;;14.26;39.23
72308;BME280;60257;42.638;23.376;2023-04-02T12:40:23;93757.50;;;14.37;39.14
72308;BME280;60257;42.638;23.376;2023-04-02T12:42:49;93764.22;;;14.50;38.98
72308;BME280;60257;42.638;23.376;2023-04-02T12:45:23;93751.63;;;14.59;38.22
72308;BME280;60257;42.638;23.376;2023-04-02T12:47:49;93763.06;;;14.54;37.80
72308;BME280;60257;42.638;23.376;2023-04-02T12:50:16;93753.97;;;14.61;38.05
72308;BME280;60257;42.638;23.376;2023-04-02T12:52:46;93752.41;;;14.71;37.70
72308;BME280;60257;42.638;23.376;2023-04-02T12:55:17;93729.91;;;14.83;37.29
72308;BME280;60257;42.638;23.376;2023-04-02T12:57:43;93734.22;;;15.09;36.79
72308;BME280;60257;42.638;23.376;2023-04-02T13:03:16;93737.22;;;15.64;36.22
72308;BME280;60257;42.638;23.376;2023-04-02T13:05:55;93731.50;;;15.99;35.79
72308;BME280;60257;42.638;23.376;2023-04-02T13:08:36;93728.22;;;16.18;34.77
72308;BME280;60257;42.638;23.376;2023-04-02T13:11:03;93739.78;;;16.06;34.90
72308;BME280;60257;42.638;23.376;2023-04-02T13:13:39;93737.00;;;16.03;34.82
72308;BME280;60257;42.638;23.376;2023-04-02T13:18:36;93732.31;;;15.96;33.84
72308;BME280;60257;42.638;23.376;2023-04-02T13:21:04;93728.59;;;15.48;35.33
72308;BME280;60257;42.638;23.376;2023-04-02T13:26:01;93743.28;;;15.13;36.19
72308;BME280;60257;42.638;23.376;2023-04-02T13:28:32;93730.22;;;15.31;35.56
72308;BME280;60257;42.638;23.376;2023-04-02T13:30:58;93725.84;;;15.37;35.31
72308;BME280;60257;42.638;23.376;2023-04-02T13:33:24;93721.47;;;15.54;35.04
72308;BME280;60257;42.638;23.376;2023-04-02T13:35:49;93724.13;;;15.78;34.62
72308;BME280;60257;42.638;23.376;2023-04-02T13:38:14;93717.09;;;15.63;34.63
72308;BME280;60257;42.638;23.376;2023-04-02T13:40:40;93728.06;;;15.81;38.75
72308;BME280;60257;42.638;23.376;2023-04-02T13:43:08;93725.25;;;15.88;39.41
72308;BME280;60257;42.638;23.376;2023-04-02T13:45:37;93730.44;;;15.79;34.80
72308;BME280;60257;42.638;23.376;2023-04-02T13:48:04;93729.31;;;15.69;34.66
72308;BME280;60257;42.638;23.376;2023-04-02T13:50:33;93737.53;;;15.84;34.66
72308;BME280;60257;42.638;23.376;2023-04-02T13:53:04;93732.69;;;16.02;34.48
72308;BME280;60257;42.638;23.376;2023-04-02T13:55:34;93727.47;;;16.11;34.06
72308;BME280;60257;42.638;23.376;2023-04-02T13:58:02;93722.81;;;16.01;33.41
72308;BME280;60257;42.638;23.376;2023-04-02T14:00:28;93716.91;;;16.02;34.39
72308;BME280;60257;42.638;23.376;2023-04-02T14:02:59;93723.34;;;16.40;33.52
72308;BME280;60257;42.638;23.376;2023-04-02T14:08:11;93715.84;;;16.41;32.91
72308;BME280;60257;42.638;23.376;2023-04-02T14:10:52;93719.47;;;16.27;32.66
72308;BME280;60257;42.638;23.376;2023-04-02T14:27:23;93722.66;;;16.26;31.51
72308;BME280;60257;42.638;23.376;2023-04-02T14:35:56;93720.84;;;15.98;32.84
72308;BME280;60257;42.638;23.376;2023-04-02T14:38:47;93714.25;;;15.77;32.63
72308;BME280;60257;42.638;23.376;2023-04-02T14:42:00;93717.09;;;15.49;33.12
72308;BME280;60257;42.638;23.376;2023-04-02T14:44:35;93727.50;;;15.17;33.51
72308;BME280;60257;42.638;23.376;2023-04-02T14:47:30;93720.38;;;15.19;34.05
72308;BME280;60257;42.638;23.376;2023-04-02T14:50:22;93718.00;;;15.25;34.28
72308;BME280;60257;42.638;23.376;2023-04-02T14:52:56;93717.19;;;15.28;33.89
72308;BME280;60257;42.638;23.376;2023-04-02T14:55:51;93726.72;;;15.06;33.80
72308;BME280;60257;42.638;23.376;2023-04-02T14:58:38;93723.97;;;14.88;34.18
72308;BME280;60257;42.638;23.376;2023-04-02T15:01:10;93732.69;;;14.86;34.27
72308;BME280;60257;42.638;23.376;2023-04-02T15:03:46;93729.16;;;14.79;34.20
72308;BME280;60257;42.638;23.376;2023-04-02T15:06:23;93733.06;;;14.85;34.00
72308;BME280;60257;42.638;23.376;2023-04-02T15:11:30;93740.53;;;14.95;34.09
72308;BME280;60257;42.638;23.376;2023-04-02T15:14:17;93738.56;;;14.99;34.00
72308;BME280;60257;42.638;23.376;2023-04-02T15:16:43;93749.22;;;15.00;33.99
72308;BME280;60257;42.638;23.376;2023-04-02T15:19:12;93742.09;;;15.07;33.62
72308;BME280;60257;42.638;23.376;2023-04-02T15:45:43;93748.03;;;14.87;34.18
72308;BME280;60257;42.638;23.376;2023-04-02T15:48:28;93741.34;;;14.99;33.83
72308;BME280;60257;42.638;23.376;2023-04-02T15:54:05;93750.38;;;15.14;33.46
72308;BME280;60257;42.638;23.376;2023-04-02T16:10:29;93756.66;;;14.18;34.12
72308;BME280;60257;42.638;23.376;2023-04-02T16:12:56;93762.56;;;14.13;34.27
72308;BME280;60257;42.638;23.376;2023-04-02T16:15:52;93755.88;;;14.00;34.40
72308;BME280;60257;42.638;23.376;2023-04-02T16:18:36;93764.06;;;13.86;33.76
72308;BME280;60257;42.638;23.376;2023-04-02T16:21:02;93763.69;;;13.87;34.18
72308;BME280;60257;42.638;23.376;2023-04-02T16:23:35;93757.41;;;13.94;34.36
72308;BME280;60257;42.638;23.376;2023-04-02T16:26:16;93762.09;;;13.86;34.74
72308;BME280;60257;42.638;23.376;2023-04-02T16:34:49;93768.81;;;13.89;34.80
72308;BME280;60257;42.638;23.376;2023-04-02T16:39:58;93775.50;;;13.77;34.94
72308;BME280;60257;42.638;23.376;2023-04-02T16:42:39;93773.06;;;13.62;36.89
72308;BME280;60257;42.638;23.376;2023-04-02T17:10:25;93811.66;;;12.52;42.19
72308;BME280;60257;42.638;23.376;2023-04-02T17:15:27;93814.53;;;12.66;40.67
72308;BME280;60257;42.638;23.376;2023-04-02T17:17:56;93813.31;;;12.64;40.27
72308;BME280;60257;42.638;23.376;2023-04-02T17:20:24;93814.09;;;12.61;40.64
72308;BME280;60257;42.638;23.376;2023-04-02T17:22:51;93814.34;;;12.45;41.09
72308;BME280;60257;42.638;23.376;2023-04-02T17:25:24;93822.13;;;12.40;41.21
72308;BME280;60257;42.638;23.376;2023-04-02T17:27:54;93828.03;;;12.42;40.24
72308;BME280;60257;42.638;23.376;2023-04-02T17:30:39;93840.13;;;12.30;40.83
72308;BME280;60257;42.638;23.376;2023-04-02T17:33:17;93835.28;;;12.20;42.06
72308;BME280;60257;42.638;23.376;2023-04-02T17:47:22;93855.41;;;11.94;40.39
72308;BME280;60257;42.638;23.376;2023-04-02T17:52:43;93851.94;;;11.97;40.88
72308;BME280;60257;42.638;23.376;2023-04-02T17:58:07;93868.66;;;11.85;42.63
72308;BME280;60257;42.638;23.376;2023-04-02T18:01:09;93868.06;;;11.69;42.55